Nearby METAR Reports

 

KHIF - Hill Afb/Ogden, Utah, USA
Distance from station: ENE 6mi, 9km
Updated: Wed, 23-Jan-2019 11:58am MST
Overcast
Overcast
 Wind from SE
Wind: SE 6 mph , 9 km/h
Temperature: 25°F , -4°C
Wind Chill: 18°F , -8°C
Dew Point: 16°F , -9°C
Humidity: 69%
Barometer: 30.29 inHg , 1025.7 hPa
Clouds: Overcast
Visibility: 10 miles , 16 km
Cloud details: Overcast 4900 ft
2019/01/23 18:58 KHIF 231858Z 14005KT 10SM OVC049 M04/M09 A3029 RMK AO2A SLP295 T10391089
KOGD - Ogden, Utah, USA
Distance from station: NNE 9mi, 14km
Updated: Wed, 23-Jan-2019 12:53pm MST
Overcast
Overcast
 Wind from S
Wind: S 8 mph , 13 km/h
Temperature: 27°F , -3°C
Wind Chill: 19°F , -7°C
Dew Point: 16°F , -9°C
Humidity: 64%
Barometer: 30.26 inHg , 1024.7 hPa
Clouds: Overcast
Visibility: 10 miles , 16 km
Cloud details: Overcast 5000 ft
2019/01/23 19:53 KOGD 231953Z 17007KT 10SM OVC050 M03/M09 A3026 RMK AO2 SLP280 T10281089
 
KSLC - Salt Lake City, Utah, USA
Distance from station: SSE 21mi, 34km
Updated: Wed, 23-Jan-2019 11:54am MST
Mostly cloudy
Mostly cloudy
 Wind from SSE
Wind: SSE 12 mph , 19 km/h
Temperature: 28°F , -2°C
Wind Chill: 18°F , -8°C
Dew Point: 18°F , -8°C
Humidity: 64%
Barometer: 30.31 inHg , 1026.4 hPa
Clouds: Mostly cloudy
Visibility: 10 miles , 16 km
Cloud details: Mostly cloudy 5000 ft
Mostly cloudy 6500 ft
Mostly cloudy 10000 ft
2019/01/23 18:54 KSLC 231854Z 16010KT 10SM BKN050 BKN065 BKN100 M02/M08 A3031 RMK AO2 SLP292 T10221078
KLGU - Logan, Utah, USA
Distance from station: NNE 50mi, 80km
Updated: Wed, 23-Jan-2019 12:51pm MST
Overcast
Overcast
 Wind from N
Wind: N 7 mph , 11 km/h
Temperature: 27°F , -3°C
Wind Chill: 19°F , -7°C
Dew Point: 19°F , -7°C
Humidity: 74%
Barometer: 30.24 inHg , 1024 hPa
Clouds: Overcast
Visibility: 9 miles , 14 km
Cloud details: Overcast 4600 ft
2019/01/23 19:51 KLGU 231951Z AUTO 36006KT 9SM OVC046 M03/M07 A3024 RMK AO2 SLP283 T10331072
 
K36U - Heber/Russ Mcdon, Utah, USA
Distance from station: SE 53mi, 85km
Updated: Wed, 11-Oct-2017 6:50pm MDT
NOT Current
Clear
Clear
 Wind from SSW
Wind: SSW 10 mph , 17 km/h, Gust: 18 mph , 30 km/h
Temperature: 63°F , 17°C
Dew Point: 16°F , -9°C
Humidity: 16%
Barometer: 29.87 inHg , 1011.5 hPa
Clouds: Clear
Visibility: 10 miles , 16 km
2017/10/12 00:50 K36U 120050Z AUTO 21009G16KT 10SM CLR 17/M09 A2987 RMK AO2
KEVW - Evanston, Wyoming, USA
Distance from station: ENE 55mi, 89km
Updated: Wed, 23-Jan-2019 12:53pm MST
Clear
Clear
 Wind from WSW
Wind: WSW 31 mph , 50 km/h
Temperature: 23°F , -5°C
Wind Chill: 5°F , -15°C
Dew Point: 12°F , -11°C
Humidity: 63%
Barometer: 30.12 inHg , 1020 hPa
Clouds: Clear
Visibility: 10 miles , 16 km
2019/01/23 19:53 KEVW 231953Z AUTO 24027KT 10SM CLR M05/M11 A3012 RMK AO2 PK WND 23031/1921 SLP259 T10501111
 
KPVU - Provo Muni, Utah, USA
Distance from station: SSE 62mi, 100km
Updated: Wed, 23-Jan-2019 11:56am MST
Overcast
Overcast
 Wind from calm
Wind: Calm
Temperature: 27°F , -3°C
Dew Point: 18°F , -8°C
Humidity: 69%
Barometer: 30.34 inHg , 1027.4 hPa
Clouds: Overcast
Visibility: 10 miles , 16 km
Cloud details: Overcast 5500 ft
2019/01/23 18:56 KPVU 231856Z 00000KT 10SM OVC055 M03/M08 A3034 RMK AO2 SLP314 T10331083
KDPG - Dugway Prvg Grou, Utah, USA
Distance from station: SW 75mi, 121km
Updated: Wed, 23-Jan-2019 11:50am MST
Partly cloudy
Partly cloudy
 Wind from S
Wind: S 10 mph , 17 km/h, Gust: 17 mph , 28 km/h
Temperature: 28°F , -2°C
Wind Chill: 19°F , -7°C
Dew Point: 19°F , -7°C
Humidity: 69%
Barometer: 30.32 inHg , 1026.8 hPa
Clouds: Partly cloudy
Visibility: 40 miles , 64 km
Cloud details: Partly cloudy 7500 ft
Partly cloudy 20000 ft
2019/01/23 18:50 KDPG 231850Z 19009G15KT 40SM SCT075 SCT200 M02/M07 A3032 RMK SLP288 T10161073
 
KENV - Wendover (aut), Utah, USA
Distance from station: WSW 105mi, 169km
Updated: Wed, 23-Jan-2019 11:56am MST
Overcast
Overcast
 Wind from E
Wind: E 7 mph , 11 km/h
Temperature: 30°F , -1°C
Wind Chill: 23°F , -5°C
Dew Point: 21°F , -6°C
Humidity: 69%
Barometer: 30.29 inHg , 1025.7 hPa
Clouds: Overcast
Visibility: 10 miles , 16 km
Cloud details: Overcast 7000 ft
2019/01/23 18:56 KENV 231856Z AUTO 09006KT 10SM OVC070 M01/M06 A3029 RMK AO2 SLP293 T10061061 FZRANO
KPUC - Price, Utah, USA
Distance from station: SE 123mi, 197km
Updated: Wed, 23-Jan-2019 12:53pm MST
Clear
Clear
 Wind from SSW
Wind: SSW 3 mph , 6 km/h
Temperature: 25°F , -4°C
Dew Point: 9°F , -13°C
Humidity: 50%
Barometer: 30.18 inHg , 1022 hPa
Clouds: Clear
Visibility: 10 miles , 16 km
2019/01/23 19:53 KPUC 231953Z AUTO 21003KT 10SM CLR M04/M13 A3018 RMK AO2 SLP279 T10391128
 
KPIH - Pocatello, Idaho, USA
Distance from station: NNW 130mi, 208km
Updated: Wed, 23-Jan-2019 12:53pm MST
Overcast
Overcast
 Wind from SSW
Wind: SSW 15 mph , 24 km/h, Gust: 23 mph , 37 km/h
Temperature: 32°F , 0°C
Wind Chill: 22°F , -6°C
Dew Point: 21°F , -6°C
Humidity: 64%
Barometer: 30.14 inHg , 1020.7 hPa
Clouds: Overcast
Visibility: 10 miles , 16 km
Cloud details: Overcast 3500 ft
2019/01/23 19:53 KPIH 231953Z 20013G20KT 10SM OVC035 00/M06 A3014 RMK AO2 PK WND 20026/1855 SLP232 T00001056
KBYI - Burley, Idaho, USA
Distance from station: NW 134mi, 216km
Updated: Wed, 23-Jan-2019 12:53pm MST
Overcast
Overcast
 Wind from W
Wind: W 9 mph , 15 km/h
Temperature: 39°F , 4°C
Wind Chill: 33°F , 1°C
Dew Point: 25°F , -4°C
Humidity: 56%
Barometer: 30.16 inHg , 1021.3 hPa
Clouds: Overcast
Visibility: 10 miles , 16 km
Cloud details: Overcast 4300 ft
2019/01/23 19:53 KBYI 231953Z AUTO 26008KT 10SM OVC043 04/M04 A3016 RMK AO2 SLP226 T00391039
 
KVEL - Vernal, Utah, USA
Distance from station: ESE 140mi, 226km
Updated: Wed, 23-Jan-2019 12:53pm MST
Clear
Clear
 Wind from calm
Wind: Calm
Temperature: 23°F , -5°C
Dew Point: 10°F , -12°C
Humidity: 58%
Barometer: 30.18 inHg , 1022 hPa
Clouds: Clear
Visibility: 10 miles , 16 km
2019/01/23 19:53 KVEL 231953Z AUTO 00000KT 10SM CLR M05/M12 A3018 RMK AO2 SLP286 T10501117
KBPI - Big Piney, Wyoming, USA
Distance from station: NE 145mi, 234km
Updated: Wed, 23-Jan-2019 12:53pm MST
Overcast
Overcast
 Wind from ESE
Wind: ESE 6 mph , 9 km/h
Temperature: 19°F , -7°C
Wind Chill: 11°F , -12°C
Dew Point: 9°F , -13°C
Humidity: 63%
Barometer: 30.03 inHg , 1016.9 hPa
Clouds: Overcast
Visibility: 10 miles , 16 km
Cloud details: Few Clouds 4200 ft
Mostly cloudy 6500 ft
Overcast 8000 ft
2019/01/23 19:53 KBPI 231953Z AUTO 11005KT 10SM FEW042 BKN065 OVC080 M07/M13 A3003 RMK AO2 SLP226 T10721128